sensor_id;sensor_type;location;lat;lon;timestamp;P1;durP1;ratioP1;P2;durP2;ratioP2
44068;SDS011;29738;51.234;5.484;2023-02-10T00:01:08;33.85;;;17.05;;
44068;SDS011;29738;51.234;5.484;2023-02-10T00:03:42;31.77;;;16.17;;
44068;SDS011;29738;51.234;5.484;2023-02-10T00:06:08;32.95;;;16.45;;
44068;SDS011;29738;51.234;5.484;2023-02-10T00:08:35;28.23;;;16.58;;
44068;SDS011;29738;51.234;5.484;2023-02-10T00:11:02;32.45;;;15.93;;
44068;SDS011;29738;51.234;5.484;2023-02-10T00:13:30;33.70;;;15.68;;
44068;SDS011;29738;51.234;5.484;2023-02-10T00:15:57;34.88;;;17.75;;
44068;SDS011;29738;51.234;5.484;2023-02-10T00:18:23;30.02;;;16.08;;
44068;SDS011;29738;51.234;5.484;2023-02-10T00:20:50;37.53;;;16.40;;
44068;SDS011;29738;51.234;5.484;2023-02-10T00:23:16;32.75;;;16.83;;
44068;SDS011;29738;51.234;5.484;2023-02-10T00:25:42;28.50;;;14.88;;
44068;SDS011;29738;51.234;5.484;2023-02-10T00:28:07;33.50;;;16.63;;
44068;SDS011;29738;51.234;5.484;2023-02-10T00:30:33;32.83;;;15.57;;
44068;SDS011;29738;51.234;5.484;2023-02-10T00:32:59;31.17;;;15.70;;
44068;SDS011;29738;51.234;5.484;2023-02-10T00:35:24;29.80;;;15.48;;
44068;SDS011;29738;51.234;5.484;2023-02-10T00:37:50;32.05;;;15.68;;
44068;SDS011;29738;51.234;5.484;2023-02-10T00:40:16;35.80;;;15.77;;
44068;SDS011;29738;51.234;5.484;2023-02-10T00:42:42;31.48;;;15.20;;
44068;SDS011;29738;51.234;5.484;2023-02-10T00:45:08;30.10;;;15.77;;
44068;SDS011;29738;51.234;5.484;2023-02-10T00:47:34;32.58;;;15.68;;
44068;SDS011;29738;51.234;5.484;2023-02-10T00:50:00;32.58;;;15.00;;
44068;SDS011;29738;51.234;5.484;2023-02-10T00:52:26;28.15;;;14.30;;
44068;SDS011;29738;51.234;5.484;2023-02-10T00:54:51;30.75;;;14.73;;
44068;SDS011;29738;51.234;5.484;2023-02-10T00:57:17;36.30;;;14.95;;
44068;SDS011;29738;51.234;5.484;2023-02-10T00:59:43;33.15;;;15.35;;
44068;SDS011;29738;51.234;5.484;2023-02-10T01:02:09;34.13;;;15.90;;
44068;SDS011;29738;51.234;5.484;2023-02-10T01:04:35;30.10;;;15.05;;
44068;SDS011;29738;51.234;5.484;2023-02-10T01:07:00;28.38;;;14.52;;
44068;SDS011;29738;51.234;5.484;2023-02-10T01:09:26;31.05;;;15.93;;
44068;SDS011;29738;51.234;5.484;2023-02-10T01:11:52;33.45;;;15.73;;
44068;SDS011;29738;51.234;5.484;2023-02-10T01:14:18;30.40;;;14.10;;
44068;SDS011;29738;51.234;5.484;2023-02-10T01:16:44;29.88;;;14.02;;
44068;SDS011;29738;51.234;5.484;2023-02-10T01:19:10;31.42;;;15.68;;
44068;SDS011;29738;51.234;5.484;2023-02-10T01:21:36;31.00;;;15.40;;
44068;SDS011;29738;51.234;5.484;2023-02-10T01:24:03;29.55;;;14.55;;
44068;SDS011;29738;51.234;5.484;2023-02-10T01:26:30;28.85;;;14.95;;
44068;SDS011;29738;51.234;5.484;2023-02-10T01:28:57;30.77;;;15.30;;
44068;SDS011;29738;51.234;5.484;2023-02-10T01:31:23;25.20;;;14.30;;
44068;SDS011;29738;51.234;5.484;2023-02-10T01:33:50;28.63;;;14.40;;
44068;SDS011;29738;51.234;5.484;2023-02-10T01:36:18;28.83;;;14.60;;
44068;SDS011;29738;51.234;5.484;2023-02-10T01:38:45;30.05;;;14.50;;
44068;SDS011;29738;51.234;5.484;2023-02-10T01:41:11;26.42;;;14.10;;
44068;SDS011;29738;51.234;5.484;2023-02-10T01:46:27;29.23;;;15.35;;
44068;SDS011;29738;51.234;5.484;2023-02-10T01:48:54;30.25;;;13.63;;
44068;SDS011;29738;51.234;5.484;2023-02-10T01:51:23;27.67;;;14.70;;
44068;SDS011;29738;51.234;5.484;2023-02-10T01:53:55;28.95;;;14.20;;
44068;SDS011;29738;51.234;5.484;2023-02-10T01:56:21;32.58;;;15.93;;
44068;SDS011;29738;51.234;5.484;2023-02-10T01:58:47;27.40;;;14.57;;
44068;SDS011;29738;51.234;5.484;2023-02-10T02:01:13;31.58;;;15.40;;
44068;SDS011;29738;51.234;5.484;2023-02-10T02:03:40;31.25;;;14.77;;
44068;SDS011;29738;51.234;5.484;2023-02-10T02:06:06;30.17;;;15.32;;
44068;SDS011;29738;51.234;5.484;2023-02-10T02:08:33;31.13;;;15.77;;
44068;SDS011;29738;51.234;5.484;2023-02-10T02:11:33;29.27;;;16.13;;
44068;SDS011;29738;51.234;5.484;2023-02-10T02:13:56;36.05;;;16.48;;
44068;SDS011;29738;51.234;5.484;2023-02-10T02:16:42;25.60;;;14.60;;
44068;SDS011;29738;51.234;5.484;2023-02-10T02:25:01;36.20;;;17.73;;
44068;SDS011;29738;51.234;5.484;2023-02-10T02:27:36;35.90;;;19.33;;
44068;SDS011;29738;51.234;5.484;2023-02-10T02:32:58;28.88;;;14.27;;
44068;SDS011;29738;51.234;5.484;2023-02-10T02:35:40;34.80;;;16.45;;
44068;SDS011;29738;51.234;5.484;2023-02-10T02:38:16;34.28;;;16.67;;
44068;SDS011;29738;51.234;5.484;2023-02-10T02:40:42;33.03;;;17.85;;
44068;SDS011;29738;51.234;5.484;2023-02-10T02:43:08;31.48;;;16.92;;
44068;SDS011;29738;51.234;5.484;2023-02-10T02:48:27;27.55;;;15.63;;
44068;SDS011;29738;51.234;5.484;2023-02-10T02:51:05;34.42;;;16.90;;
44068;SDS011;29738;51.234;5.484;2023-02-10T03:02:08;33.85;;;14.20;;
44068;SDS011;29738;51.234;5.484;2023-02-10T03:04:38;28.23;;;15.85;;
44068;SDS011;29738;51.234;5.484;2023-02-10T03:07:04;29.38;;;15.13;;
44068;SDS011;29738;51.234;5.484;2023-02-10T03:09:31;29.00;;;16.35;;
44068;SDS011;29738;51.234;5.484;2023-02-10T03:11:58;36.53;;;16.33;;
44068;SDS011;29738;51.234;5.484;2023-02-10T03:14:24;30.90;;;14.65;;
44068;SDS011;29738;51.234;5.484;2023-02-10T03:16:50;36.40;;;16.70;;
44068;SDS011;29738;51.234;5.484;2023-02-10T03:19:16;30.95;;;16.92;;
44068;SDS011;29738;51.234;5.484;2023-02-10T03:21:42;35.10;;;17.23;;
44068;SDS011;29738;51.234;5.484;2023-02-10T03:24:07;37.45;;;18.92;;
44068;SDS011;29738;51.234;5.484;2023-02-10T03:26:34;33.80;;;17.23;;
44068;SDS011;29738;51.234;5.484;2023-02-10T03:29:00;29.30;;;15.82;;
44068;SDS011;29738;51.234;5.484;2023-02-10T03:31:27;32.05;;;15.68;;
44068;SDS011;29738;51.234;5.484;2023-02-10T03:33:52;29.85;;;16.88;;
44068;SDS011;29738;51.234;5.484;2023-02-10T03:36:18;35.17;;;17.75;;
44068;SDS011;29738;51.234;5.484;2023-02-10T03:38:44;33.90;;;17.55;;
44068;SDS011;29738;51.234;5.484;2023-02-10T03:41:10;35.70;;;16.17;;
44068;SDS011;29738;51.234;5.484;2023-02-10T03:43:36;34.10;;;18.08;;
44068;SDS011;29738;51.234;5.484;2023-02-10T03:46:03;36.88;;;17.98;;
44068;SDS011;29738;51.234;5.484;2023-02-10T03:48:29;36.80;;;18.10;;
44068;SDS011;29738;51.234;5.484;2023-02-10T03:51:00;32.63;;;15.75;;
44068;SDS011;29738;51.234;5.484;2023-02-10T03:53:27;31.55;;;16.17;;
44068;SDS011;29738;51.234;5.484;2023-02-10T03:55:54;32.45;;;16.60;;
44068;SDS011;29738;51.234;5.484;2023-02-10T03:58:20;28.90;;;15.60;;
44068;SDS011;29738;51.234;5.484;2023-02-10T04:00:47;33.65;;;16.38;;
44068;SDS011;29738;51.234;5.484;2023-02-10T04:03:13;31.30;;;16.70;;
44068;SDS011;29738;51.234;5.484;2023-02-10T04:05:39;32.72;;;16.45;;
44068;SDS011;29738;51.234;5.484;2023-02-10T04:08:05;30.30;;;15.05;;
44068;SDS011;29738;51.234;5.484;2023-02-10T04:10:31;33.13;;;18.27;;
44068;SDS011;29738;51.234;5.484;2023-02-10T04:12:57;30.65;;;16.05;;
44068;SDS011;29738;51.234;5.484;2023-02-10T04:15:23;33.65;;;17.50;;
44068;SDS011;29738;51.234;5.484;2023-02-10T04:17:48;36.20;;;18.33;;
44068;SDS011;29738;51.234;5.484;2023-02-10T04:20:14;34.70;;;16.63;;
44068;SDS011;29738;51.234;5.484;2023-02-10T04:22:41;31.88;;;17.35;;
44068;SDS011;29738;51.234;5.484;2023-02-10T04:25:07;31.13;;;15.75;;
44068;SDS011;29738;51.234;5.484;2023-02-10T04:27:33;33.20;;;16.85;;
44068;SDS011;29738;51.234;5.484;2023-02-10T04:29:59;35.10;;;16.63;;
44068;SDS011;29738;51.234;5.484;2023-02-10T04:32:25;34.20;;;17.60;;
44068;SDS011;29738;51.234;5.484;2023-02-10T04:34:51;32.72;;;14.32;;
44068;SDS011;29738;51.234;5.484;2023-02-10T04:37:17;32.22;;;15.65;;
44068;SDS011;29738;51.234;5.484;2023-02-10T04:39:43;32.70;;;17.60;;
44068;SDS011;29738;51.234;5.484;2023-02-10T04:42:08;38.47;;;18.33;;
44068;SDS011;29738;51.234;5.484;2023-02-10T04:44:34;30.58;;;16.92;;
44068;SDS011;29738;51.234;5.484;2023-02-10T04:47:00;26.88;;;14.50;;
44068;SDS011;29738;51.234;5.484;2023-02-10T04:49:26;34.20;;;17.02;;
44068;SDS011;29738;51.234;5.484;2023-02-10T04:51:52;34.70;;;17.35;;
44068;SDS011;29738;51.234;5.484;2023-02-10T04:54:18;31.52;;;17.13;;
44068;SDS011;29738;51.234;5.484;2023-02-10T04:56:44;38.63;;;17.15;;
44068;SDS011;29738;51.234;5.484;2023-02-10T04:59:10;30.55;;;15.98;;
44068;SDS011;29738;51.234;5.484;2023-02-10T05:01:36;37.67;;;16.98;;
44068;SDS011;29738;51.234;5.484;2023-02-10T05:04:02;29.30;;;15.52;;
44068;SDS011;29738;51.234;5.484;2023-02-10T05:06:27;36.20;;;18.90;;
44068;SDS011;29738;51.234;5.484;2023-02-10T05:08:53;28.52;;;14.45;;
44068;SDS011;29738;51.234;5.484;2023-02-10T05:11:19;35.45;;;17.52;;
44068;SDS011;29738;51.234;5.484;2023-02-10T05:13:45;31.08;;;15.05;;
44068;SDS011;29738;51.234;5.484;2023-02-10T05:16:11;37.53;;;18.40;;
44068;SDS011;29738;51.234;5.484;2023-02-10T05:18:39;35.83;;;17.50;;
44068;SDS011;29738;51.234;5.484;2023-02-10T05:21:06;38.38;;;19.45;;
44068;SDS011;29738;51.234;5.484;2023-02-10T05:23:32;41.08;;;18.02;;
44068;SDS011;29738;51.234;5.484;2023-02-10T05:25:59;40.22;;;17.60;;
44068;SDS011;29738;51.234;5.484;2023-02-10T05:28:25;37.25;;;18.02;;
44068;SDS011;29738;51.234;5.484;2023-02-10T05:30:51;38.15;;;18.45;;
44068;SDS011;29738;51.234;5.484;2023-02-10T05:33:16;42.35;;;19.55;;
44068;SDS011;29738;51.234;5.484;2023-02-10T05:35:42;42.35;;;19.88;;
44068;SDS011;29738;51.234;5.484;2023-02-10T05:38:08;42.88;;;20.27;;
44068;SDS011;29738;51.234;5.484;2023-02-10T05:40:35;35.95;;;17.25;;
44068;SDS011;29738;51.234;5.484;2023-02-10T05:43:01;43.00;;;18.65;;
44068;SDS011;29738;51.234;5.484;2023-02-10T05:45:27;39.97;;;17.70;;
44068;SDS011;29738;51.234;5.484;2023-02-10T05:47:53;35.35;;;17.10;;
44068;SDS011;29738;51.234;5.484;2023-02-10T05:50:19;39.90;;;17.67;;
44068;SDS011;29738;51.234;5.484;2023-02-10T05:52:45;44.30;;;18.98;;
44068;SDS011;29738;51.234;5.484;2023-02-10T05:55:11;37.97;;;19.73;;
44068;SDS011;29738;51.234;5.484;2023-02-10T05:57:37;72.10;;;36.03;;
44068;SDS011;29738;51.234;5.484;2023-02-10T06:00:04;66.30;;;31.42;;
44068;SDS011;29738;51.234;5.484;2023-02-10T06:02:30;52.30;;;22.50;;
44068;SDS011;29738;51.234;5.484;2023-02-10T06:04:56;35.72;;;18.15;;
44068;SDS011;29738;51.234;5.484;2023-02-10T06:07:22;60.10;;;27.98;;
44068;SDS011;29738;51.234;5.484;2023-02-10T06:09:47;40.63;;;20.60;;
44068;SDS011;29738;51.234;5.484;2023-02-10T06:12:13;65.85;;;30.67;;
44068;SDS011;29738;51.234;5.484;2023-02-10T06:14:39;53.83;;;18.98;;
44068;SDS011;29738;51.234;5.484;2023-02-10T06:17:05;58.50;;;25.23;;
44068;SDS011;29738;51.234;5.484;2023-02-10T06:19:34;56.58;;;25.88;;
44068;SDS011;29738;51.234;5.484;2023-02-10T06:22:01;42.22;;;20.23;;
44068;SDS011;29738;51.234;5.484;2023-02-10T06:24:27;59.25;;;31.48;;
44068;SDS011;29738;51.234;5.484;2023-02-10T06:26:53;39.85;;;18.75;;
44068;SDS011;29738;51.234;5.484;2023-02-10T06:29:19;56.05;;;21.10;;
44068;SDS011;29738;51.234;5.484;2023-02-10T06:31:44;47.17;;;18.73;;
44068;SDS011;29738;51.234;5.484;2023-02-10T06:34:11;55.00;;;20.98;;
44068;SDS011;29738;51.234;5.484;2023-02-10T06:36:37;40.95;;;17.98;;
44068;SDS011;29738;51.234;5.484;2023-02-10T06:39:02;49.03;;;17.55;;
44068;SDS011;29738;51.234;5.484;2023-02-10T06:41:28;50.97;;;18.90;;
44068;SDS011;29738;51.234;5.484;2023-02-10T06:43:54;42.95;;;20.90;;
44068;SDS011;29738;51.234;5.484;2023-02-10T06:46:20;59.22;;;20.13;;
44068;SDS011;29738;51.234;5.484;2023-02-10T06:48:46;68.43;;;28.90;;
44068;SDS011;29738;51.234;5.484;2023-02-10T06:51:12;51.42;;;20.80;;
44068;SDS011;29738;51.234;5.484;2023-02-10T06:53:38;45.63;;;18.63;;
44068;SDS011;29738;51.234;5.484;2023-02-10T06:56:03;40.30;;;18.30;;
44068;SDS011;29738;51.234;5.484;2023-02-10T06:58:29;44.10;;;17.38;;
44068;SDS011;29738;51.234;5.484;2023-02-10T07:00:55;37.00;;;17.90;;
44068;SDS011;29738;51.234;5.484;2023-02-10T07:03:21;43.35;;;18.33;;
44068;SDS011;29738;51.234;5.484;2023-02-10T07:05:47;34.95;;;15.90;;
44068;SDS011;29738;51.234;5.484;2023-02-10T07:08:12;52.97;;;21.48;;
44068;SDS011;29738;51.234;5.484;2023-02-10T07:10:38;42.42;;;18.25;;
44068;SDS011;29738;51.234;5.484;2023-02-10T07:13:04;44.03;;;18.15;;
44068;SDS011;29738;51.234;5.484;2023-02-10T07:15:30;41.50;;;20.70;;
44068;SDS011;29738;51.234;5.484;2023-02-10T07:17:56;33.97;;;16.75;;
44068;SDS011;29738;51.234;5.484;2023-02-10T07:20:21;39.00;;;18.33;;
44068;SDS011;29738;51.234;5.484;2023-02-10T07:22:47;51.92;;;20.00;;
44068;SDS011;29738;51.234;5.484;2023-02-10T07:25:13;36.30;;;16.98;;
44068;SDS011;29738;51.234;5.484;2023-02-10T07:27:39;38.88;;;17.40;;
44068;SDS011;29738;51.234;5.484;2023-02-10T07:30:05;39.13;;;17.80;;
44068;SDS011;29738;51.234;5.484;2023-02-10T07:32:31;36.33;;;18.30;;
44068;SDS011;29738;51.234;5.484;2023-02-10T07:34:57;43.28;;;21.38;;
44068;SDS011;29738;51.234;5.484;2023-02-10T07:37:22;52.75;;;25.77;;
44068;SDS011;29738;51.234;5.484;2023-02-10T07:39:49;47.05;;;24.42;;
44068;SDS011;29738;51.234;5.484;2023-02-10T07:42:14;51.22;;;20.90;;
44068;SDS011;29738;51.234;5.484;2023-02-10T07:44:40;41.55;;;19.95;;
44068;SDS011;29738;51.234;5.484;2023-02-10T07:47:06;46.90;;;22.30;;
44068;SDS011;29738;51.234;5.484;2023-02-10T07:49:32;46.83;;;23.30;;
44068;SDS011;29738;51.234;5.484;2023-02-10T07:51:58;41.97;;;21.65;;
44068;SDS011;29738;51.234;5.484;2023-02-10T07:54:24;41.67;;;22.73;;
44068;SDS011;29738;51.234;5.484;2023-02-10T07:56:49;43.40;;;22.30;;
44068;SDS011;29738;51.234;5.484;2023-02-10T07:59:15;45.85;;;22.90;;
44068;SDS011;29738;51.234;5.484;2023-02-10T08:01:41;41.80;;;19.80;;
44068;SDS011;29738;51.234;5.484;2023-02-10T08:04:11;39.15;;;18.92;;
44068;SDS011;29738;51.234;5.484;2023-02-10T08:06:37;33.55;;;20.13;;
44068;SDS011;29738;51.234;5.484;2023-02-10T08:09:03;37.67;;;20.45;;
44068;SDS011;29738;51.234;5.484;2023-02-10T08:11:29;40.67;;;22.05;;
44068;SDS011;29738;51.234;5.484;2023-02-10T08:13:56;43.30;;;22.02;;
44068;SDS011;29738;51.234;5.484;2023-02-10T08:16:21;42.25;;;20.20;;
44068;SDS011;29738;51.234;5.484;2023-02-10T08:18:47;45.55;;;24.38;;
44068;SDS011;29738;51.234;5.484;2023-02-10T08:21:13;46.70;;;25.58;;
44068;SDS011;29738;51.234;5.484;2023-02-10T08:23:39;40.70;;;22.60;;
44068;SDS011;29738;51.234;5.484;2023-02-10T08:26:05;44.97;;;22.13;;
44068;SDS011;29738;51.234;5.484;2023-02-10T08:28:33;44.90;;;22.05;;
44068;SDS011;29738;51.234;5.484;2023-02-10T08:31:00;39.40;;;21.70;;
44068;SDS011;29738;51.234;5.484;2023-02-10T08:33:27;46.70;;;22.67;;
44068;SDS011;29738;51.234;5.484;2023-02-10T08:35:52;47.53;;;23.52;;
44068;SDS011;29738;51.234;5.484;2023-02-10T08:38:18;43.00;;;22.92;;
44068;SDS011;29738;51.234;5.484;2023-02-10T08:40:44;48.63;;;25.50;;
44068;SDS011;29738;51.234;5.484;2023-02-10T08:43:10;69.00;;;32.45;;
44068;SDS011;29738;51.234;5.484;2023-02-10T08:45:39;58.47;;;29.25;;
44068;SDS011;29738;51.234;5.484;2023-02-10T08:48:05;52.20;;;27.13;;
44068;SDS011;29738;51.234;5.484;2023-02-10T08:50:31;46.15;;;24.27;;
44068;SDS011;29738;51.234;5.484;2023-02-10T08:52:56;45.60;;;21.65;;
44068;SDS011;29738;51.234;5.484;2023-02-10T08:55:22;40.88;;;20.95;;
44068;SDS011;29738;51.234;5.484;2023-02-10T08:57:48;45.75;;;21.13;;
44068;SDS011;29738;51.234;5.484;2023-02-10T09:00:14;42.70;;;22.77;;
44068;SDS011;29738;51.234;5.484;2023-02-10T09:02:40;47.78;;;22.17;;
44068;SDS011;29738;51.234;5.484;2023-02-10T09:05:06;40.70;;;21.40;;
44068;SDS011;29738;51.234;5.484;2023-02-10T09:07:32;47.25;;;23.55;;
44068;SDS011;29738;51.234;5.484;2023-02-10T09:09:58;49.17;;;25.27;;
44068;SDS011;29738;51.234;5.484;2023-02-10T09:12:24;46.20;;;24.60;;
44068;SDS011;29738;51.234;5.484;2023-02-10T09:14:49;40.22;;;20.30;;
44068;SDS011;29738;51.234;5.484;2023-02-10T09:17:15;41.72;;;23.55;;
44068;SDS011;29738;51.234;5.484;2023-02-10T09:19:41;46.08;;;24.15;;
44068;SDS011;29738;51.234;5.484;2023-02-10T09:22:07;43.08;;;23.55;;
44068;SDS011;29738;51.234;5.484;2023-02-10T09:24:33;47.30;;;24.73;;
44068;SDS011;29738;51.234;5.484;2023-02-10T09:26:59;39.38;;;20.42;;
44068;SDS011;29738;51.234;5.484;2023-02-10T09:29:24;37.90;;;22.00;;
44068;SDS011;29738;51.234;5.484;2023-02-10T09:31:50;48.67;;;24.55;;
44068;SDS011;29738;51.234;5.484;2023-02-10T09:34:16;47.42;;;23.10;;
44068;SDS011;29738;51.234;5.484;2023-02-10T09:36:43;53.55;;;26.52;;
44068;SDS011;29738;51.234;5.484;2023-02-10T09:39:09;47.58;;;23.00;;
44068;SDS011;29738;51.234;5.484;2023-02-10T09:46:38;45.17;;;24.45;;
44068;SDS011;29738;51.234;5.484;2023-02-10T09:52:04;53.78;;;25.50;;
44068;SDS011;29738;51.234;5.484;2023-02-10T09:54:35;42.53;;;21.95;;
44068;SDS011;29738;51.234;5.484;2023-02-10T09:57:02;51.85;;;27.90;;
44068;SDS011;29738;51.234;5.484;2023-02-10T09:59:30;57.33;;;25.92;;
44068;SDS011;29738;51.234;5.484;2023-02-10T10:02:01;52.97;;;26.88;;
44068;SDS011;29738;51.234;5.484;2023-02-10T10:04:35;47.85;;;24.98;;
44068;SDS011;29738;51.234;5.484;2023-02-10T10:07:11;51.85;;;25.58;;
44068;SDS011;29738;51.234;5.484;2023-02-10T10:09:50;50.58;;;26.67;;
44068;SDS011;29738;51.234;5.484;2023-02-10T10:12:29;42.65;;;22.42;;
44068;SDS011;29738;51.234;5.484;2023-02-10T10:14:55;43.95;;;22.50;;
44068;SDS011;29738;51.234;5.484;2023-02-10T10:18:22;40.60;;;20.83;;
44068;SDS011;29738;51.234;5.484;2023-02-10T10:21:05;40.28;;;22.23;;
44068;SDS011;29738;51.234;5.484;2023-02-10T10:26:15;42.92;;;23.65;;
44068;SDS011;29738;51.234;5.484;2023-02-10T10:32:44;45.00;;;22.30;;
44068;SDS011;29738;51.234;5.484;2023-02-10T10:35:21;43.75;;;21.35;;
44068;SDS011;29738;51.234;5.484;2023-02-10T10:37:53;47.70;;;23.63;;
44068;SDS011;29738;51.234;5.484;2023-02-10T10:40:21;39.15;;;20.35;;
44068;SDS011;29738;51.234;5.484;2023-02-10T10:42:51;44.03;;;22.67;;
44068;SDS011;29738;51.234;5.484;2023-02-10T10:45:39;43.10;;;21.52;;
44068;SDS011;29738;51.234;5.484;2023-02-10T10:48:21;43.38;;;19.67;;
44068;SDS011;29738;51.234;5.484;2023-02-10T10:50:52;48.58;;;21.73;;
44068;SDS011;29738;51.234;5.484;2023-02-10T10:56:02;43.65;;;22.65;;
44068;SDS011;29738;51.234;5.484;2023-02-10T10:58:35;46.03;;;21.90;;
44068;SDS011;29738;51.234;5.484;2023-02-10T11:01:03;46.37;;;22.17;;
44068;SDS011;29738;51.234;5.484;2023-02-10T11:03:30;38.25;;;20.88;;
44068;SDS011;29738;51.234;5.484;2023-02-10T11:06:06;45.72;;;21.40;;
44068;SDS011;29738;51.234;5.484;2023-02-10T11:08:36;39.95;;;21.63;;
44068;SDS011;29738;51.234;5.484;2023-02-10T11:11:13;33.33;;;18.13;;
44068;SDS011;29738;51.234;5.484;2023-02-10T11:13:48;42.60;;;21.45;;
44068;SDS011;29738;51.234;5.484;2023-02-10T11:16:17;34.95;;;19.95;;
44068;SDS011;29738;51.234;5.484;2023-02-10T11:19:00;35.67;;;18.58;;
44068;SDS011;29738;51.234;5.484;2023-02-10T11:21:37;37.95;;;19.90;;
44068;SDS011;29738;51.234;5.484;2023-02-10T11:27:01;37.25;;;19.77;;
44068;SDS011;29738;51.234;5.484;2023-02-10T11:29:33;38.30;;;20.05;;
44068;SDS011;29738;51.234;5.484;2023-02-10T11:32:04;29.00;;;17.02;;
44068;SDS011;29738;51.234;5.484;2023-02-10T11:37:13;35.05;;;17.13;;
44068;SDS011;29738;51.234;5.484;2023-02-10T11:39:46;39.47;;;17.45;;
44068;SDS011;29738;51.234;5.484;2023-02-10T11:42:23;30.55;;;17.20;;
44068;SDS011;29738;51.234;5.484;2023-02-10T11:47:23;27.92;;;14.50;;
44068;SDS011;29738;51.234;5.484;2023-02-10T11:49:50;29.05;;;16.33;;
44068;SDS011;29738;51.234;5.484;2023-02-10T11:52:19;36.08;;;17.85;;
44068;SDS011;29738;51.234;5.484;2023-02-10T11:54:47;29.65;;;15.55;;
44068;SDS011;29738;51.234;5.484;2023-02-10T12:16:31;32.15;;;16.05;;
44068;SDS011;29738;51.234;5.484;2023-02-10T12:19:24;28.20;;;15.77;;
44068;SDS011;29738;51.234;5.484;2023-02-10T12:22:13;25.98;;;13.48;;
44068;SDS011;29738;51.234;5.484;2023-02-10T12:40:51;27.25;;;13.90;;
44068;SDS011;29738;51.234;5.484;2023-02-10T12:49:41;22.65;;;12.40;;
44068;SDS011;29738;51.234;5.484;2023-02-10T12:52:22;20.03;;;12.00;;
44068;SDS011;29738;51.234;5.484;2023-02-10T12:55:02;25.88;;;13.32;;
44068;SDS011;29738;51.234;5.484;2023-02-10T12:58:02;21.05;;;11.63;;
44068;SDS011;29738;51.234;5.484;2023-02-10T13:00:42;28.70;;;14.63;;
44068;SDS011;29738;51.234;5.484;2023-02-10T13:03:30;24.15;;;14.02;;
44068;SDS011;29738;51.234;5.484;2023-02-10T13:08:49;30.20;;;15.68;;
44068;SDS011;29738;51.234;5.484;2023-02-10T13:13:58;29.60;;;16.38;;
44068;SDS011;29738;51.234;5.484;2023-02-10T13:16:31;29.48;;;15.05;;
44068;SDS011;29738;51.234;5.484;2023-02-10T13:21:58;26.25;;;12.10;;
44068;SDS011;29738;51.234;5.484;2023-02-10T13:25:07;19.58;;;10.68;;
44068;SDS011;29738;51.234;5.484;2023-02-10T13:27:59;20.70;;;10.93;;
44068;SDS011;29738;51.234;5.484;2023-02-10T13:30:50;17.25;;;9.05;;
44068;SDS011;29738;51.234;5.484;2023-02-10T13:34:00;18.42;;;8.75;;
44068;SDS011;29738;51.234;5.484;2023-02-10T13:36:38;16.70;;;8.60;;
44068;SDS011;29738;51.234;5.484;2023-02-10T13:39:16;20.60;;;9.80;;
44068;SDS011;29738;51.234;5.484;2023-02-10T13:41:47;18.25;;;9.00;;
44068;SDS011;29738;51.234;5.484;2023-02-10T13:44:22;22.88;;;10.77;;
44068;SDS011;29738;51.234;5.484;2023-02-10T13:46:55;18.33;;;9.43;;
44068;SDS011;29738;51.234;5.484;2023-02-10T13:49:34;20.35;;;10.07;;
44068;SDS011;29738;51.234;5.484;2023-02-10T13:52:22;20.48;;;10.18;;
44068;SDS011;29738;51.234;5.484;2023-02-10T13:55:24;23.83;;;11.85;;
44068;SDS011;29738;51.234;5.484;2023-02-10T13:57:51;24.10;;;12.02;;
44068;SDS011;29738;51.234;5.484;2023-02-10T14:00:24;20.25;;;10.88;;
44068;SDS011;29738;51.234;5.484;2023-02-10T14:13:56;17.33;;;9.40;;
44068;SDS011;29738;51.234;5.484;2023-02-10T14:19:00;19.98;;;10.45;;
44068;SDS011;29738;51.234;5.484;2023-02-10T14:21:37;25.15;;;13.45;;
44068;SDS011;29738;51.234;5.484;2023-02-10T14:24:05;25.38;;;11.93;;
44068;SDS011;29738;51.234;5.484;2023-02-10T14:26:41;21.02;;;10.60;;
44068;SDS011;29738;51.234;5.484;2023-02-10T14:29:12;27.52;;;14.95;;
44068;SDS011;29738;51.234;5.484;2023-02-10T14:31:41;27.50;;;15.35;;
44068;SDS011;29738;51.234;5.484;2023-02-10T14:34:17;31.63;;;17.20;;
44068;SDS011;29738;51.234;5.484;2023-02-10T14:39:24;34.08;;;19.00;;
44068;SDS011;29738;51.234;5.484;2023-02-10T14:41:53;42.30;;;21.48;;
44068;SDS011;29738;51.234;5.484;2023-02-10T14:47:14;30.67;;;16.13;;
44068;SDS011;29738;51.234;5.484;2023-02-10T14:49:47;22.08;;;12.55;;
44068;SDS011;29738;51.234;5.484;2023-02-10T14:52:22;27.52;;;15.50;;
44068;SDS011;29738;51.234;5.484;2023-02-10T14:54:52;33.22;;;16.92;;
44068;SDS011;29738;51.234;5.484;2023-02-10T14:57:19;29.55;;;15.25;;
44068;SDS011;29738;51.234;5.484;2023-02-10T14:59:57;29.02;;;15.73;;
44068;SDS011;29738;51.234;5.484;2023-02-10T15:02:25;26.73;;;14.88;;
44068;SDS011;29738;51.234;5.484;2023-02-10T15:04:56;24.40;;;12.18;;
44068;SDS011;29738;51.234;5.484;2023-02-10T15:07:26;28.17;;;14.88;;
44068;SDS011;29738;51.234;5.484;2023-02-10T15:10:06;31.13;;;16.23;;
44068;SDS011;29738;51.234;5.484;2023-02-10T15:12:44;29.88;;;15.65;;
44068;SDS011;29738;51.234;5.484;2023-02-10T15:18:01;23.17;;;12.88;;
44068;SDS011;29738;51.234;5.484;2023-02-10T15:20:33;29.13;;;13.82;;
44068;SDS011;29738;51.234;5.484;2023-02-10T15:33:18;24.55;;;12.25;;
44068;SDS011;29738;51.234;5.484;2023-02-10T15:35:55;23.65;;;12.25;;
44068;SDS011;29738;51.234;5.484;2023-02-10T15:38:31;24.48;;;15.85;;
44068;SDS011;29738;51.234;5.484;2023-02-10T15:40:57;32.65;;;17.15;;
44068;SDS011;29738;51.234;5.484;2023-02-10T15:43:28;20.17;;;12.13;;
44068;SDS011;29738;51.234;5.484;2023-02-10T15:48:53;28.33;;;14.15;;
44068;SDS011;29738;51.234;5.484;2023-02-10T15:51:31;36.50;;;21.15;;
44068;SDS011;29738;51.234;5.484;2023-02-10T15:54:01;50.65;;;32.88;;
44068;SDS011;29738;51.234;5.484;2023-02-10T15:56:28;24.73;;;14.27;;
44068;SDS011;29738;51.234;5.484;2023-02-10T15:58:54;27.20;;;15.60;;
44068;SDS011;29738;51.234;5.484;2023-02-10T16:01:20;30.92;;;16.15;;
44068;SDS011;29738;51.234;5.484;2023-02-10T16:03:45;32.45;;;17.42;;
44068;SDS011;29738;51.234;5.484;2023-02-10T16:06:15;24.88;;;14.20;;
44068;SDS011;29738;51.234;5.484;2023-02-10T16:08:42;19.20;;;11.00;;
44068;SDS011;29738;51.234;5.484;2023-02-10T16:11:09;26.98;;;13.95;;
44068;SDS011;29738;51.234;5.484;2023-02-10T16:13:36;25.50;;;12.15;;
44068;SDS011;29738;51.234;5.484;2023-02-10T16:16:02;30.52;;;17.33;;
44068;SDS011;29738;51.234;5.484;2023-02-10T16:18:28;29.20;;;14.60;;
44068;SDS011;29738;51.234;5.484;2023-02-10T16:20:55;35.22;;;16.50;;
44068;SDS011;29738;51.234;5.484;2023-02-10T16:23:21;24.20;;;13.43;;
44068;SDS011;29738;51.234;5.484;2023-02-10T16:25:47;29.27;;;14.38;;
44068;SDS011;29738;51.234;5.484;2023-02-10T16:28:14;29.50;;;13.30;;
44068;SDS011;29738;51.234;5.484;2023-02-10T16:30:42;24.42;;;12.68;;
44068;SDS011;29738;51.234;5.484;2023-02-10T16:33:08;64.55;;;34.95;;
44068;SDS011;29738;51.234;5.484;2023-02-10T16:35:35;41.45;;;25.70;;
44068;SDS011;29738;51.234;5.484;2023-02-10T16:38:01;55.38;;;33.85;;
44068;SDS011;29738;51.234;5.484;2023-02-10T16:42:54;65.35;;;39.47;;
44068;SDS011;29738;51.234;5.484;2023-02-10T16:45:21;29.83;;;16.08;;
44068;SDS011;29738;51.234;5.484;2023-02-10T16:47:48;24.92;;;11.13;;